createdAt,value
2023-05-21T00:01:07.846Z,20.42
2023-05-21T00:04:16.674Z,20.40
2023-05-21T00:07:22.521Z,20.44
2023-05-21T00:10:27.476Z,20.43
2023-05-21T00:13:33.413Z,20.51
2023-05-21T00:16:40.370Z,20.39
2023-05-21T00:19:47.343Z,20.32
2023-05-21T00:22:53.429Z,20.25
2023-05-21T00:25:58.908Z,20.20
2023-05-21T00:29:04.174Z,20.15
2023-05-21T00:32:10.367Z,20.08
2023-05-21T00:35:16.134Z,20.00
2023-05-21T00:38:24.564Z,19.91
2023-05-21T00:41:33.247Z,19.94
2023-05-21T00:44:41.061Z,19.99
2023-05-21T00:47:48.970Z,19.87
2023-05-21T00:50:56.956Z,19.82
2023-05-21T00:54:05.262Z,19.82
2023-05-21T00:57:11.518Z,19.84
2023-05-21T01:00:17.567Z,19.83
2023-05-21T01:03:24.042Z,19.52
2023-05-21T01:06:30.557Z,19.43
2023-05-21T01:09:29.772Z,19.36
2023-05-21T01:12:23.585Z,19.33
2023-05-21T01:15:29.121Z,19.36
2023-05-21T01:18:37.081Z,19.23
2023-05-21T01:21:44.768Z,19.08
2023-05-21T01:24:52.684Z,19.11
2023-05-21T01:27:58.373Z,19.11
2023-05-21T01:31:04.522Z,19.14
2023-05-21T01:34:09.891Z,19.12
2023-05-21T01:37:23.402Z,19.10
2023-05-21T01:41:11.151Z,19.15
2023-05-21T01:44:17.250Z,19.14
2023-05-21T01:47:16.767Z,19.18
2023-05-21T01:50:25.868Z,19.06
2023-05-21T01:53:32.249Z,18.96
2023-05-21T01:56:39.025Z,18.94
2023-05-21T01:59:45.549Z,18.88
2023-05-21T02:02:51.244Z,18.89
2023-05-21T02:05:59.608Z,19.02
2023-05-21T02:09:05.140Z,19.06
2023-05-21T02:12:11.435Z,19.04
2023-05-21T02:15:17.258Z,19.04
2023-05-21T02:18:23.691Z,18.95
2023-05-21T02:21:30.299Z,18.93
2023-05-21T02:24:34.868Z,19.04
2023-05-21T02:27:42.466Z,19.04
2023-05-21T02:30:48.477Z,19.11
2023-05-21T02:33:56.876Z,19.14
2023-05-21T02:37:02.501Z,19.13
2023-05-21T02:40:10.888Z,19.15
2023-05-21T02:43:17.383Z,19.11
2023-05-21T02:46:24.151Z,19.16
2023-05-21T02:49:30.655Z,19.31
2023-05-21T02:52:36.266Z,19.29
2023-05-21T02:55:43.132Z,19.41
2023-05-21T02:58:48.640Z,19.50
2023-05-21T03:01:55.315Z,19.55
2023-05-21T03:05:01.368Z,19.64
2023-05-21T03:08:06.751Z,19.64
2023-05-21T03:11:12.145Z,19.68
2023-05-21T03:14:18.654Z,19.79
2023-05-21T03:17:25.057Z,19.87
2023-05-21T03:20:31.900Z,19.91
2023-05-21T03:23:39.197Z,19.89
2023-05-21T03:26:46.020Z,19.99
2023-05-21T03:29:53.078Z,20.12
2023-05-21T03:32:59.236Z,20.21
2023-05-21T03:36:06.202Z,20.32
2023-05-21T03:39:11.152Z,20.32
2023-05-21T03:42:16.847Z,20.41
2023-05-21T03:45:26.295Z,20.57
2023-05-21T03:48:53.250Z,20.89
2023-05-21T03:52:01.266Z,21.14
2023-05-21T03:55:07.242Z,21.42
2023-05-21T03:58:13.234Z,21.81
2023-05-21T04:01:18.866Z,22.03
2023-05-21T04:04:25.406Z,22.23
2023-05-21T04:07:30.600Z,22.47
2023-05-21T04:10:36.871Z,22.80
2023-05-21T04:13:42.228Z,22.95
2023-05-21T04:16:50.342Z,23.09
2023-05-21T04:19:57.335Z,23.24
2023-05-21T04:22:56.932Z,23.34
2023-05-21T04:26:03.120Z,23.39
2023-05-21T04:29:05.829Z,23.49
2023-05-21T04:31:58.657Z,23.57
2023-05-21T04:35:08.267Z,23.59
2023-05-21T04:38:14.313Z,23.53
2023-05-21T04:41:19.753Z,23.80
2023-05-21T04:44:20.185Z,24.07
2023-05-21T04:47:27.255Z,24.37
2023-05-21T04:50:32.071Z,24.54
2023-05-21T04:53:38.599Z,24.70
2023-05-21T04:56:44.074Z,24.84
2023-05-21T04:59:50.831Z,24.92
2023-05-21T05:02:57.019Z,25.08
2023-05-21T05:06:02.986Z,25.14
2023-05-21T05:09:09.242Z,25.15
2023-05-21T05:12:14.573Z,25.23
2023-05-21T05:15:21.893Z,25.35
2023-05-21T05:18:27.048Z,25.39
2023-05-21T05:21:32.103Z,25.71
2023-05-21T05:24:38.088Z,25.58
2023-05-21T05:27:43.008Z,26.02
2023-05-21T05:30:48.263Z,26.40
2023-05-21T05:33:57.115Z,26.67
2023-05-21T05:37:04.153Z,26.68
2023-05-21T05:40:11.878Z,26.85
2023-05-21T05:43:18.648Z,26.93
2023-05-21T05:46:23.645Z,26.69
2023-05-21T05:49:30.124Z,26.55
2023-05-21T05:52:36.365Z,26.68
2023-05-21T05:55:41.913Z,26.84
2023-05-21T05:58:46.911Z,26.62
2023-05-21T06:01:53.522Z,26.71
2023-05-21T06:04:59.978Z,26.64
2023-05-21T06:08:08.654Z,26.40
2023-05-21T06:11:15.289Z,26.06
2023-05-21T06:14:23.071Z,26.16
2023-05-21T06:17:30.148Z,26.33
2023-05-21T06:20:39.527Z,26.41
2023-05-21T06:23:45.386Z,26.53
2023-05-21T06:26:51.903Z,26.59
2023-05-21T06:29:57.202Z,26.63
2023-05-21T06:33:03.864Z,26.85
2023-05-21T06:36:10.081Z,27.05
2023-05-21T06:39:17.135Z,27.10
2023-05-21T06:42:22.627Z,26.79
2023-05-21T06:45:30.040Z,26.80
2023-05-21T06:48:37.578Z,26.94
2023-05-21T06:51:44.516Z,27.17
2023-05-21T06:54:50.664Z,27.31
2023-05-21T06:57:56.836Z,27.61
2023-05-21T07:01:02.533Z,27.70
2023-05-21T07:04:07.849Z,27.93
2023-05-21T07:07:13.623Z,28.07
2023-05-21T07:10:20.373Z,28.34
2023-05-21T07:13:28.020Z,28.39
2023-05-21T07:16:33.518Z,28.49
2023-05-21T07:19:39.554Z,28.84
2023-05-21T07:22:46.142Z,28.93
2023-05-21T07:25:52.129Z,28.86
2023-05-21T07:28:57.689Z,28.55
2023-05-21T07:32:03.818Z,28.35
2023-05-21T07:35:09.608Z,28.07
2023-05-21T07:38:15.206Z,28.02
2023-05-21T07:41:21.396Z,27.83
2023-05-21T07:44:27.532Z,27.67
2023-05-21T07:47:34.243Z,27.57
2023-05-21T07:50:41.662Z,27.45
2023-05-21T07:53:48.694Z,27.58
2023-05-21T07:56:57.386Z,27.69
2023-05-21T08:00:20.013Z,27.86
2023-05-21T08:03:25.609Z,28.04
2023-05-21T08:06:31.285Z,28.18
2023-05-21T08:09:38.956Z,28.42
2023-05-21T08:12:44.520Z,28.63
2023-05-21T08:15:53.100Z,28.77
2023-05-21T08:18:58.251Z,28.78
2023-05-21T08:22:03.792Z,28.66
2023-05-21T08:25:11.030Z,28.66
2023-05-21T08:28:17.805Z,28.75
2023-05-21T08:31:23.791Z,28.94
2023-05-21T08:34:30.577Z,29.06
2023-05-21T08:37:54.799Z,29.01
2023-05-21T08:41:03.013Z,29.00
2023-05-21T08:44:11.715Z,29.25
2023-05-21T08:47:17.027Z,29.16
2023-05-21T08:50:28.549Z,29.48
2023-05-21T08:53:37.749Z,29.69
2023-05-21T08:56:47.614Z,29.63
2023-05-21T08:59:53.339Z,29.64
2023-05-21T09:03:01.880Z,29.73
2023-05-21T09:06:07.731Z,29.90
2023-05-21T09:09:18.179Z,29.96
2023-05-21T09:12:22.755Z,30.04
2023-05-21T09:15:27.879Z,30.29
2023-05-21T09:18:34.848Z,30.31
2023-05-21T09:21:58.137Z,30.44
2023-05-21T09:25:06.898Z,30.39
2023-05-21T09:28:12.803Z,30.36
2023-05-21T09:31:18.313Z,30.44
2023-05-21T09:34:23.646Z,30.20
2023-05-21T09:37:30.681Z,30.17
2023-05-21T09:40:37.547Z,30.26
2023-05-21T09:43:43.064Z,30.45
2023-05-21T09:46:48.882Z,30.51
2023-05-21T09:49:42.369Z,30.46
2023-05-21T09:52:51.209Z,30.69
2023-05-21T09:55:56.591Z,30.65
2023-05-21T09:59:03.761Z,30.90
2023-05-21T10:02:09.204Z,31.01
2023-05-21T10:05:14.459Z,31.07
2023-05-21T10:08:21.248Z,31.00
2023-05-21T10:11:26.921Z,31.19
2023-05-21T10:14:35.662Z,31.55
2023-05-21T10:17:44.534Z,31.55
2023-05-21T10:20:50.545Z,31.67
2023-05-21T10:23:58.813Z,31.71
2023-05-21T10:27:03.851Z,31.70
2023-05-21T10:30:10.701Z,31.98
2023-05-21T10:33:17.124Z,32.03
2023-05-21T10:36:21.945Z,31.92
2023-05-21T10:39:28.936Z,31.67
2023-05-21T10:42:48.452Z,31.53
2023-05-21T10:46:10.795Z,30.98
2023-05-21T10:49:51.612Z,30.26
2023-05-21T10:53:10.791Z,29.56
2023-05-21T10:56:34.164Z,29.12
2023-05-21T10:59:58.009Z,28.91
2023-05-21T11:30:01.487Z,26.42
2023-05-21T11:33:27.646Z,27.00
2023-05-21T11:36:28.283Z,26.86
2023-05-21T11:39:34.088Z,26.06
2023-05-21T11:42:50.522Z,25.80
2023-05-21T11:45:55.723Z,25.46
2023-05-21T11:49:01.403Z,25.07
2023-05-21T11:52:06.708Z,25.02
2023-05-21T11:55:14.148Z,24.59
2023-05-21T11:58:20.685Z,24.59
2023-05-21T12:01:39.218Z,24.50
2023-05-21T12:04:49.321Z,24.23
2023-05-21T12:07:58.607Z,24.06
2023-05-21T12:11:04.194Z,23.88
2023-05-21T12:14:10.677Z,23.77
2023-05-21T12:17:17.428Z,23.27
2023-05-21T12:20:24.194Z,22.99
2023-05-21T12:23:38.250Z,22.93
2023-05-21T12:26:44.168Z,22.87
2023-05-21T12:29:51.377Z,22.80
2023-05-21T12:32:58.369Z,22.81
2023-05-21T12:36:05.020Z,22.86
2023-05-21T12:42:28.387Z,22.98
2023-05-21T12:45:34.531Z,23.10
2023-05-21T12:48:41.203Z,23.53
2023-05-21T12:51:57.089Z,23.77
2023-05-21T12:55:09.464Z,23.89
2023-05-21T12:58:22.466Z,23.82
2023-05-21T13:01:28.429Z,23.45
2023-05-21T13:04:34.680Z,23.50
2023-05-21T13:07:40.637Z,23.50
2023-05-21T13:10:46.516Z,23.35
2023-05-21T13:13:46.462Z,23.25
2023-05-21T13:16:52.766Z,23.16
2023-05-21T13:20:03.497Z,23.06
2023-05-21T13:23:12.060Z,22.89
2023-05-21T13:26:17.510Z,22.73
2023-05-21T13:29:24.197Z,22.53
2023-05-21T13:32:29.947Z,22.34
2023-05-21T13:35:37.572Z,22.12
2023-05-21T13:38:43.932Z,21.73
2023-05-21T13:41:51.215Z,21.73
2023-05-21T13:44:57.496Z,21.63
2023-05-21T13:48:03.542Z,21.65
2023-05-21T13:51:10.094Z,21.69
2023-05-21T13:54:15.433Z,21.63
2023-05-21T13:57:20.472Z,21.76
2023-05-21T14:00:27.163Z,21.86
2023-05-21T14:03:34.892Z,21.87
2023-05-21T14:06:40.658Z,21.77
2023-05-21T14:09:46.333Z,21.71
2023-05-21T14:12:55.904Z,21.75
2023-05-21T14:16:01.076Z,21.57
2023-05-21T14:19:10.748Z,21.51
2023-05-21T14:22:16.098Z,21.16
2023-05-21T14:25:22.930Z,21.19
2023-05-21T14:28:29.555Z,21.18
2023-05-21T14:31:35.591Z,21.08
2023-05-21T14:34:41.396Z,21.30
2023-05-21T14:37:47.921Z,21.38
2023-05-21T14:40:53.693Z,21.38
2023-05-21T14:43:58.974Z,21.06
2023-05-21T14:47:05.273Z,20.98
2023-05-21T14:50:10.829Z,20.78
2023-05-21T14:53:21.278Z,20.73
2023-05-21T14:56:29.639Z,20.75
2023-05-21T14:59:35.177Z,20.60
2023-05-21T15:02:41.448Z,20.61
2023-05-21T15:05:47.337Z,20.62
2023-05-21T15:08:53.970Z,20.46
2023-05-21T15:12:00.382Z,20.52
2023-05-21T15:15:05.833Z,20.28
2023-05-21T15:18:12.569Z,20.25
2023-05-21T15:21:19.704Z,20.24
2023-05-21T15:24:25.175Z,20.29
2023-05-21T15:27:33.030Z,20.17
2023-05-21T15:30:38.373Z,20.28
2023-05-21T15:33:44.521Z,20.30
2023-05-21T15:36:52.214Z,20.47
2023-05-21T15:40:01.011Z,20.46
2023-05-21T15:43:07.216Z,20.50
2023-05-21T15:46:13.165Z,20.51
2023-05-21T15:49:19.901Z,20.41
2023-05-21T15:52:26.463Z,20.40
2023-05-21T15:55:32.222Z,20.38
2023-05-21T15:58:38.396Z,20.26
2023-05-21T16:01:44.870Z,20.60
2023-05-21T16:04:51.467Z,20.63
2023-05-21T16:07:58.127Z,20.70
2023-05-21T16:11:04.052Z,20.70
2023-05-21T16:14:02.939Z,20.66
2023-05-21T16:17:08.510Z,20.72
2023-05-21T16:20:14.106Z,20.76
2023-05-21T16:23:20.577Z,20.87
2023-05-21T16:26:26.841Z,20.84
2023-05-21T16:29:32.098Z,20.78
2023-05-21T16:32:32.008Z,20.77
2023-05-21T16:35:38.888Z,20.62
2023-05-21T16:38:50.573Z,20.48
2023-05-21T16:41:57.300Z,20.52
2023-05-21T16:45:02.390Z,20.52
2023-05-21T16:48:08.096Z,20.60
2023-05-21T16:51:14.492Z,20.66
2023-05-21T16:54:20.887Z,20.67
2023-05-21T16:57:27.132Z,20.51
2023-05-21T17:00:34.995Z,20.68
2023-05-21T17:03:43.488Z,20.76
2023-05-21T17:06:51.156Z,20.80
2023-05-21T17:09:57.185Z,20.84
2023-05-21T17:13:17.824Z,20.74
2023-05-21T17:16:11.697Z,20.56
2023-05-21T17:19:17.116Z,20.71
2023-05-21T17:22:23.747Z,20.72
2023-05-21T17:25:29.222Z,20.89
2023-05-21T17:28:34.813Z,20.72
2023-05-21T17:31:41.311Z,20.58
2023-05-21T17:34:46.432Z,20.63
2023-05-21T17:37:51.958Z,20.55
2023-05-21T17:40:58.438Z,20.53
2023-05-21T17:44:04.166Z,20.32
2023-05-21T17:47:10.996Z,20.45
2023-05-21T17:50:16.301Z,20.80
2023-05-21T17:53:22.159Z,20.76
2023-05-21T17:56:28.241Z,20.85
2023-05-21T17:59:33.755Z,20.89
2023-05-21T18:02:39.558Z,20.78
2023-05-21T18:05:46.186Z,20.63
2023-05-21T18:08:45.476Z,20.60
2023-05-21T18:11:45.315Z,20.52
2023-05-21T18:14:38.608Z,20.46
2023-05-21T18:17:44.250Z,20.52
2023-05-21T18:20:51.250Z,20.72
2023-05-21T18:23:58.386Z,20.60
2023-05-21T18:27:07.063Z,20.53
2023-05-21T18:30:13.608Z,20.53
2023-05-21T18:33:19.712Z,20.51
2023-05-21T18:36:26.637Z,20.51
2023-05-21T18:39:34.651Z,20.46
2023-05-21T18:42:41.213Z,20.56
2023-05-21T18:45:47.591Z,20.57
2023-05-21T18:48:55.338Z,20.60
2023-05-21T18:52:01.723Z,20.68
2023-05-21T18:55:08.833Z,20.80
2023-05-21T18:58:15.974Z,20.86
2023-05-21T19:01:21.978Z,20.78
2023-05-21T19:04:28.524Z,20.95
2023-05-21T19:07:33.277Z,20.93
2023-05-21T19:10:40.119Z,21.04
2023-05-21T19:13:39.925Z,21.16
2023-05-21T19:16:46.240Z,20.48
2023-05-21T19:19:44.703Z,20.11
2023-05-21T19:22:46.125Z,20.10
2023-05-21T19:25:52.736Z,19.52
2023-05-21T19:28:59.895Z,19.57
2023-05-21T19:32:06.254Z,19.47
2023-05-21T19:35:12.522Z,19.50
2023-05-21T19:38:12.220Z,19.32
2023-05-21T19:41:04.653Z,19.46
2023-05-21T19:44:10.592Z,19.63
2023-05-21T19:47:18.683Z,19.44
2023-05-21T19:50:26.476Z,19.39
2023-05-21T19:53:31.924Z,19.30
2023-05-21T19:56:37.707Z,19.28
2023-05-21T19:59:44.506Z,19.15
2023-05-21T20:02:50.740Z,19.28
2023-05-21T20:05:56.216Z,19.44
2023-05-21T20:08:55.527Z,19.55
2023-05-21T20:12:01.532Z,19.84
2023-05-21T20:15:07.643Z,19.80
2023-05-21T20:18:13.500Z,19.71
2023-05-21T20:21:19.310Z,19.85
2023-05-21T20:24:25.703Z,19.94
2023-05-21T20:27:31.498Z,19.89
2023-05-21T20:30:38.251Z,19.58
2023-05-21T20:33:40.374Z,19.34
2023-05-21T20:36:47.154Z,19.38
2023-05-21T20:39:52.542Z,19.41
2023-05-21T20:43:01.462Z,19.52
2023-05-21T20:46:08.204Z,19.33
2023-05-21T20:49:14.396Z,19.44
2023-05-21T20:52:21.248Z,19.32
2023-05-21T20:55:27.659Z,19.39
2023-05-21T20:58:33.783Z,19.41
2023-05-21T21:01:40.377Z,19.25
2023-05-21T21:04:40.829Z,19.40
2023-05-21T21:11:47.643Z,19.39
2023-05-21T21:14:56.872Z,19.23
2023-05-21T21:17:57.149Z,19.14
2023-05-21T21:25:05.589Z,19.01
2023-05-21T21:28:10.853Z,19.07
2023-05-21T21:31:16.654Z,19.01
2023-05-21T21:34:22.436Z,18.97
2023-05-21T21:37:28.457Z,19.26
2023-05-21T21:40:36.056Z,19.39
2023-05-21T21:43:42.558Z,19.51
2023-05-21T21:46:49.428Z,19.63
2023-05-21T21:49:56.256Z,19.81
2023-05-21T21:53:02.561Z,20.24
2023-05-21T21:56:09.080Z,20.82
2023-05-21T21:59:15.519Z,20.84
2023-05-21T22:02:20.992Z,20.63
2023-05-21T22:05:27.671Z,20.51
2023-05-21T22:08:36.058Z,20.46
2023-05-21T22:11:42.792Z,20.38
2023-05-21T22:14:50.647Z,20.33
2023-05-21T22:17:58.781Z,20.75
2023-05-21T22:21:03.942Z,20.34
2023-05-21T22:24:12.808Z,20.27
2023-05-21T22:27:17.126Z,20.58
2023-05-21T22:30:23.875Z,19.93
2023-05-21T22:33:28.882Z,19.82
2023-05-21T22:36:34.469Z,19.66
2023-05-21T22:39:39.738Z,19.61
2023-05-21T22:42:45.606Z,19.69
2023-05-21T22:45:52.209Z,19.62
2023-05-21T22:48:58.801Z,19.63
2023-05-21T22:52:06.751Z,19.85
2023-05-21T22:55:13.588Z,20.16
2023-05-21T22:58:13.120Z,19.90
2023-05-21T23:01:20.368Z,20.02
2023-05-21T23:04:35.834Z,19.68
2023-05-21T23:07:33.087Z,19.75
2023-05-21T23:10:39.023Z,19.75
2023-05-21T23:13:45.438Z,19.73
2023-05-21T23:16:52.966Z,19.66
2023-05-21T23:19:59.517Z,19.78
2023-05-21T23:23:06.097Z,19.42
2023-05-21T23:26:12.271Z,19.29
2023-05-21T23:29:17.494Z,19.13
2023-05-21T23:32:23.273Z,19.36
2023-05-21T23:35:28.626Z,19.27
2023-05-21T23:38:34.466Z,19.24
2023-05-21T23:41:39.893Z,19.32
2023-05-21T23:44:45.399Z,19.20
2023-05-21T23:47:50.795Z,19.14
2023-05-21T23:50:56.760Z,19.11
2023-05-21T23:54:02.665Z,19.18
2023-05-21T23:57:08.819Z,19.07
